Thursday, November 23, 2017, 7:14 PM EST
Back to Local

KCEF, Chicopee Falls / Westover Air Force Base

Location: Chicopee, MA, United States Lat: 42.2
Local Time: 7:14 PM EST ( 0:14 GMT) Lon: -72.533
Time Zone: US/Eastern Elev: 246 ft

Show me the last for .
Show Coded

Time T Td Feel RH Dir Speed Gust Alt SLP Vis Weather Sky Remarks
2017-11-23 18:56 35 17 30 48 260° 5 - 29.98 30.01 10 SCT160 6-hr Min Temp (7pm): 33.1°F
6-hr Max Temp (7pm): 43.0°F
2017-11-23 17:56 34 17 28 49 290° 7 - 29.97 30.00 10 FEW180 None
2017-11-23 16:56 37 16 31 40 290° 9 - 29.97 29.99 10 FEW190 SCT220 None
2017-11-23 15:56 40 16 36 36 250° 7 - 29.96 29.98 10 CLR None
2017-11-23 14:56 43 14 40 30 270° 5 - 29.96 29.98 10 FEW200 None
2017-11-23 13:56 42 14 41 31 310° 3 - 29.98 30.00 10 CLR None
2017-11-23 12:56 41 17 37 36 210° 6 - 29.99 30.01 10 CLR 6-hr Min Temp (1pm): 27.9°F
6-hr Max Temp (1pm): 41.0°F
2017-11-23 11:56 39 16 36 38 280° 5 - 30.01 30.03 10 CLR None
2017-11-23 10:56 37 16 33 41 300° 6 - 30.04 30.06 10 CLR None
2017-11-23 09:56 34 17 31 49 360° 3 - 30.05 30.07 10 CLR None
2017-11-23 08:56 32 17 24 54 320° 9 - 30.04 30.06 10 CLR None
2017-11-23 07:56 30 18 23 60 350° 8 - 30.05 30.07 10 CLR None
2017-11-23 06:56 28 18 18 66 350° 12 - 30.03 30.06 10 CLR 24-hr Precip Total (7am): 0.18"
6-hr Min Temp (7am): 21.4°F
6-hr Max Temp (7am): 32.2°F
2017-11-23 05:56 22 18 14 85 50° 6 - 30.04 30.06 10 CLR None
2017-11-23 04:56 26 18 - 71 - Calm - 30.04 30.06 10 CLR None
2017-11-23 03:56 26 19 - 73 - Calm - 30.01 30.03 10 CLR None
2017-11-23 02:56 27 19 21 70 320° 6 - 30.01 30.03 10 CLR None
2017-11-23 01:56 31 19 28 59 320° 3 - 30.01 30.03 10 CLR None
2017-11-23 00:56 32 19 24 57 320° 9 - 30.00 30.02 10 CLR 6-hr Min Temp (1am): 32.0°F
6-hr Max Temp (1am): 39.7°F
2017-11-22 23:56 35 20 24 54 330° 13 22 29.99 30.01 10 CLR 24-hr Min Temp (12am): 35.1°F
24-hr Max Temp (12am): 45.3°F
2017-11-22 22:56 38 23 27 54 320° 16 24 29.97 29.99 10 OVC038 None
2017-11-22 21:56 39 23 28 53 320° 12 22 29.95 29.97 10 BKN039 Peak wind: 34 mph (30 kts) from 340° at 29 min
2017-11-22 20:56 40 24 28 53 340° 13 30 29.94 29.96 10 BKN040 Peak wind: 33 mph (29 kts) from 340° at 29 min
2017-11-22 19:56 40 24 28 53 330° 18 29 29.93 29.95 10 BKN044 Peak wind: 33 mph (29 kts) from 350° at 53 min

Support USWX by starting your Amazon purchase here.